Terminal Aerodrome Forecast
Issued by NWS

Current Version | Previous Version | Text Only | Print | Product List | Glossary Off
Versions: 1 2 3 4 5 6 7 8 9 10 11 12 13 14 15 16 17 18 19 20 21 22 23 24 25 26 27 28 29 30 31 32 33 34 35 36

000
FTUS41 KRNK 251139
TAFLWB
TAF
KLWB 251139Z 2512/2612 05004KT P6SM -RA OVC040
     FM251400 06005KT 5SM -RA BR OVC023
     FM251800 08006KT 4SM -RA BR SCT010 OVC018
     FM260100 VRB04KT 3SM -RADZ BR BKN007 OVC012
     FM260900 27006KT 2SM -DZ BR SCT007 OVC013=

USA.gov is the U.S. government's official web portal to all federal, state and local government web resources and services.